sensor_id;sensor_type;location;lat;lon;timestamp;P1;durP1;ratioP1;P2;durP2;ratioP2
69985;SDS011;57328;52.054;5.294;2024-01-30T00:00:32;21.27;;;10.80;;
69985;SDS011;57328;52.054;5.294;2024-01-30T00:03:00;21.40;;;10.35;;
69985;SDS011;57328;52.054;5.294;2024-01-30T00:05:27;21.58;;;10.15;;
69985;SDS011;57328;52.054;5.294;2024-01-30T00:07:54;21.75;;;10.23;;
69985;SDS011;57328;52.054;5.294;2024-01-30T00:10:21;19.25;;;10.18;;
69985;SDS011;57328;52.054;5.294;2024-01-30T00:12:49;22.33;;;10.00;;
69985;SDS011;57328;52.054;5.294;2024-01-30T00:15:16;23.35;;;10.60;;
69985;SDS011;57328;52.054;5.294;2024-01-30T00:17:44;22.30;;;10.43;;
69985;SDS011;57328;52.054;5.294;2024-01-30T00:20:11;21.13;;;10.75;;
69985;SDS011;57328;52.054;5.294;2024-01-30T00:22:39;20.27;;;10.52;;
69985;SDS011;57328;52.054;5.294;2024-01-30T00:25:06;23.20;;;11.13;;
69985;SDS011;57328;52.054;5.294;2024-01-30T00:27:33;21.77;;;10.95;;
69985;SDS011;57328;52.054;5.294;2024-01-30T00:30:01;21.25;;;10.13;;
69985;SDS011;57328;52.054;5.294;2024-01-30T00:32:28;21.65;;;10.93;;
69985;SDS011;57328;52.054;5.294;2024-01-30T00:34:55;19.88;;;10.63;;
69985;SDS011;57328;52.054;5.294;2024-01-30T00:37:23;18.92;;;10.18;;
69985;SDS011;57328;52.054;5.294;2024-01-30T00:39:51;22.27;;;10.18;;
69985;SDS011;57328;52.054;5.294;2024-01-30T00:42:18;19.88;;;9.65;;
69985;SDS011;57328;52.054;5.294;2024-01-30T00:44:45;20.98;;;10.10;;
69985;SDS011;57328;52.054;5.294;2024-01-30T00:47:12;22.85;;;11.07;;
69985;SDS011;57328;52.054;5.294;2024-01-30T00:49:40;23.00;;;10.45;;
69985;SDS011;57328;52.054;5.294;2024-01-30T00:52:07;18.52;;;9.68;;
69985;SDS011;57328;52.054;5.294;2024-01-30T00:54:34;21.27;;;9.88;;
69985;SDS011;57328;52.054;5.294;2024-01-30T00:57:02;21.40;;;9.85;;
69985;SDS011;57328;52.054;5.294;2024-01-30T00:59:29;20.80;;;10.27;;
69985;SDS011;57328;52.054;5.294;2024-01-30T01:01:56;21.35;;;10.65;;
69985;SDS011;57328;52.054;5.294;2024-01-30T01:04:24;20.95;;;10.50;;
69985;SDS011;57328;52.054;5.294;2024-01-30T01:06:52;20.23;;;10.27;;
69985;SDS011;57328;52.054;5.294;2024-01-30T01:09:19;20.85;;;10.45;;
69985;SDS011;57328;52.054;5.294;2024-01-30T01:11:46;20.15;;;10.15;;
69985;SDS011;57328;52.054;5.294;2024-01-30T01:14:14;20.00;;;9.80;;
69985;SDS011;57328;52.054;5.294;2024-01-30T01:16:41;21.45;;;10.90;;
69985;SDS011;57328;52.054;5.294;2024-01-30T01:19:08;19.83;;;10.00;;
69985;SDS011;57328;52.054;5.294;2024-01-30T01:21:35;21.60;;;9.50;;
69985;SDS011;57328;52.054;5.294;2024-01-30T01:24:03;17.67;;;9.43;;
69985;SDS011;57328;52.054;5.294;2024-01-30T01:26:31;18.15;;;8.77;;
69985;SDS011;57328;52.054;5.294;2024-01-30T01:28:58;22.73;;;10.38;;
69985;SDS011;57328;52.054;5.294;2024-01-30T01:31:25;19.98;;;9.10;;
69985;SDS011;57328;52.054;5.294;2024-01-30T01:33:56;19.77;;;10.27;;
69985;SDS011;57328;52.054;5.294;2024-01-30T01:36:23;21.83;;;9.93;;
69985;SDS011;57328;52.054;5.294;2024-01-30T01:38:50;18.67;;;9.45;;
69985;SDS011;57328;52.054;5.294;2024-01-30T01:41:17;23.95;;;10.57;;
69985;SDS011;57328;52.054;5.294;2024-01-30T01:43:45;20.40;;;10.23;;
69985;SDS011;57328;52.054;5.294;2024-01-30T01:46:12;22.58;;;9.95;;
69985;SDS011;57328;52.054;5.294;2024-01-30T01:48:39;18.38;;;8.68;;
69985;SDS011;57328;52.054;5.294;2024-01-30T01:51:07;19.15;;;9.23;;
69985;SDS011;57328;52.054;5.294;2024-01-30T01:53:34;18.65;;;9.50;;
69985;SDS011;57328;52.054;5.294;2024-01-30T01:56:01;19.90;;;9.88;;
69985;SDS011;57328;52.054;5.294;2024-01-30T01:58:29;17.75;;;9.07;;
69985;SDS011;57328;52.054;5.294;2024-01-30T02:00:56;19.00;;;10.15;;
69985;SDS011;57328;52.054;5.294;2024-01-30T02:03:25;19.27;;;9.13;;
69985;SDS011;57328;52.054;5.294;2024-01-30T02:05:52;20.33;;;9.52;;
69985;SDS011;57328;52.054;5.294;2024-01-30T02:08:19;18.92;;;10.07;;
69985;SDS011;57328;52.054;5.294;2024-01-30T02:10:47;20.58;;;9.73;;
69985;SDS011;57328;52.054;5.294;2024-01-30T02:13:14;19.33;;;8.98;;
69985;SDS011;57328;52.054;5.294;2024-01-30T02:15:41;21.30;;;9.50;;
69985;SDS011;57328;52.054;5.294;2024-01-30T02:18:08;16.10;;;8.30;;
69985;SDS011;57328;52.054;5.294;2024-01-30T02:20:36;20.45;;;9.10;;
69985;SDS011;57328;52.054;5.294;2024-01-30T02:23:05;18.73;;;9.02;;
69985;SDS011;57328;52.054;5.294;2024-01-30T02:25:38;18.92;;;9.23;;
69985;SDS011;57328;52.054;5.294;2024-01-30T02:28:10;18.80;;;9.07;;
69985;SDS011;57328;52.054;5.294;2024-01-30T02:30:47;17.48;;;9.13;;
69985;SDS011;57328;52.054;5.294;2024-01-30T02:33:14;19.08;;;9.07;;
69985;SDS011;57328;52.054;5.294;2024-01-30T02:35:42;19.05;;;8.80;;
69985;SDS011;57328;52.054;5.294;2024-01-30T02:38:09;19.40;;;9.07;;
69985;SDS011;57328;52.054;5.294;2024-01-30T02:40:36;16.13;;;8.35;;
69985;SDS011;57328;52.054;5.294;2024-01-30T02:43:03;18.08;;;9.07;;
69985;SDS011;57328;52.054;5.294;2024-01-30T02:45:31;19.27;;;9.15;;
69985;SDS011;57328;52.054;5.294;2024-01-30T02:47:58;18.52;;;8.82;;
69985;SDS011;57328;52.054;5.294;2024-01-30T02:50:25;21.60;;;9.63;;
69985;SDS011;57328;52.054;5.294;2024-01-30T02:52:52;20.27;;;9.60;;
69985;SDS011;57328;52.054;5.294;2024-01-30T02:55:19;19.65;;;9.88;;
69985;SDS011;57328;52.054;5.294;2024-01-30T02:57:47;23.63;;;9.90;;
69985;SDS011;57328;52.054;5.294;2024-01-30T03:00:14;22.85;;;10.60;;
69985;SDS011;57328;52.054;5.294;2024-01-30T03:02:42;22.00;;;10.57;;
69985;SDS011;57328;52.054;5.294;2024-01-30T03:05:09;22.27;;;10.77;;
69985;SDS011;57328;52.054;5.294;2024-01-30T03:07:36;24.20;;;11.15;;
69985;SDS011;57328;52.054;5.294;2024-01-30T03:10:04;25.83;;;10.95;;
69985;SDS011;57328;52.054;5.294;2024-01-30T03:12:32;22.30;;;10.73;;
69985;SDS011;57328;52.054;5.294;2024-01-30T03:14:59;23.85;;;10.93;;
69985;SDS011;57328;52.054;5.294;2024-01-30T03:17:27;22.40;;;11.43;;
69985;SDS011;57328;52.054;5.294;2024-01-30T03:19:54;23.42;;;11.18;;
69985;SDS011;57328;52.054;5.294;2024-01-30T03:22:21;22.95;;;10.80;;
69985;SDS011;57328;52.054;5.294;2024-01-30T03:24:48;22.83;;;11.23;;
69985;SDS011;57328;52.054;5.294;2024-01-30T03:27:16;22.55;;;10.52;;
69985;SDS011;57328;52.054;5.294;2024-01-30T03:29:43;23.38;;;10.75;;
69985;SDS011;57328;52.054;5.294;2024-01-30T03:32:10;21.42;;;10.48;;
69985;SDS011;57328;52.054;5.294;2024-01-30T03:34:37;22.60;;;10.38;;
69985;SDS011;57328;52.054;5.294;2024-01-30T03:37:05;24.55;;;10.60;;
69985;SDS011;57328;52.054;5.294;2024-01-30T03:39:32;22.67;;;9.95;;
69985;SDS011;57328;52.054;5.294;2024-01-30T03:41:59;20.25;;;10.02;;
69985;SDS011;57328;52.054;5.294;2024-01-30T03:44:27;20.08;;;10.05;;
69985;SDS011;57328;52.054;5.294;2024-01-30T03:46:54;19.88;;;9.40;;
69985;SDS011;57328;52.054;5.294;2024-01-30T03:49:21;20.95;;;10.05;;
69985;SDS011;57328;52.054;5.294;2024-01-30T03:51:48;22.30;;;10.00;;
69985;SDS011;57328;52.054;5.294;2024-01-30T03:54:16;17.63;;;8.65;;
69985;SDS011;57328;52.054;5.294;2024-01-30T03:56:43;17.55;;;9.10;;
69985;SDS011;57328;52.054;5.294;2024-01-30T03:59:10;19.83;;;8.65;;
69985;SDS011;57328;52.054;5.294;2024-01-30T04:01:37;18.10;;;7.82;;
69985;SDS011;57328;52.054;5.294;2024-01-30T04:04:04;17.40;;;8.13;;
69985;SDS011;57328;52.054;5.294;2024-01-30T04:06:32;16.48;;;7.90;;
69985;SDS011;57328;52.054;5.294;2024-01-30T04:08:59;17.50;;;7.93;;
69985;SDS011;57328;52.054;5.294;2024-01-30T04:11:26;16.67;;;7.43;;
69985;SDS011;57328;52.054;5.294;2024-01-30T04:13:53;18.65;;;8.60;;
69985;SDS011;57328;52.054;5.294;2024-01-30T04:16:21;19.08;;;7.55;;
69985;SDS011;57328;52.054;5.294;2024-01-30T04:18:51;16.73;;;7.32;;
69985;SDS011;57328;52.054;5.294;2024-01-30T04:21:20;18.60;;;8.07;;
69985;SDS011;57328;52.054;5.294;2024-01-30T04:26:14;21.02;;;8.20;;
69985;SDS011;57328;52.054;5.294;2024-01-30T04:28:42;17.92;;;7.80;;
69985;SDS011;57328;52.054;5.294;2024-01-30T04:31:09;17.05;;;8.18;;
69985;SDS011;57328;52.054;5.294;2024-01-30T04:33:36;18.77;;;9.00;;
69985;SDS011;57328;52.054;5.294;2024-01-30T04:36:07;18.02;;;8.65;;
69985;SDS011;57328;52.054;5.294;2024-01-30T04:38:36;19.98;;;8.93;;
69985;SDS011;57328;52.054;5.294;2024-01-30T04:41:04;18.73;;;8.57;;
69985;SDS011;57328;52.054;5.294;2024-01-30T04:43:31;17.23;;;8.43;;
69985;SDS011;57328;52.054;5.294;2024-01-30T04:45:59;17.15;;;8.80;;
69985;SDS011;57328;52.054;5.294;2024-01-30T04:48:26;17.27;;;8.15;;
69985;SDS011;57328;52.054;5.294;2024-01-30T04:50:53;18.90;;;8.65;;
69985;SDS011;57328;52.054;5.294;2024-01-30T04:53:22;18.35;;;8.15;;
69985;SDS011;57328;52.054;5.294;2024-01-30T04:55:49;16.45;;;8.18;;
69985;SDS011;57328;52.054;5.294;2024-01-30T04:58:16;16.88;;;8.35;;
69985;SDS011;57328;52.054;5.294;2024-01-30T05:00:44;12.80;;;5.97;;
69985;SDS011;57328;52.054;5.294;2024-01-30T05:03:13;16.48;;;8.00;;
69985;SDS011;57328;52.054;5.294;2024-01-30T05:05:40;15.43;;;7.95;;
69985;SDS011;57328;52.054;5.294;2024-01-30T05:08:07;14.23;;;7.35;;
69985;SDS011;57328;52.054;5.294;2024-01-30T05:10:34;14.20;;;7.72;;
69985;SDS011;57328;52.054;5.294;2024-01-30T05:13:02;15.10;;;7.57;;
69985;SDS011;57328;52.054;5.294;2024-01-30T05:15:29;18.10;;;7.82;;
69985;SDS011;57328;52.054;5.294;2024-01-30T05:17:56;15.25;;;7.47;;
69985;SDS011;57328;52.054;5.294;2024-01-30T05:20:23;15.27;;;7.70;;
69985;SDS011;57328;52.054;5.294;2024-01-30T05:22:54;15.10;;;7.30;;
69985;SDS011;57328;52.054;5.294;2024-01-30T05:25:21;15.15;;;7.40;;
69985;SDS011;57328;52.054;5.294;2024-01-30T05:27:49;15.73;;;6.25;;
69985;SDS011;57328;52.054;5.294;2024-01-30T05:30:16;14.05;;;7.05;;
69985;SDS011;57328;52.054;5.294;2024-01-30T05:32:44;14.05;;;7.38;;
69985;SDS011;57328;52.054;5.294;2024-01-30T05:35:11;15.90;;;7.07;;
69985;SDS011;57328;52.054;5.294;2024-01-30T05:37:38;15.70;;;7.78;;
69985;SDS011;57328;52.054;5.294;2024-01-30T05:40:06;15.82;;;7.18;;
69985;SDS011;57328;52.054;5.294;2024-01-30T05:42:34;17.38;;;7.00;;
69985;SDS011;57328;52.054;5.294;2024-01-30T05:45:01;14.82;;;7.47;;
69985;SDS011;57328;52.054;5.294;2024-01-30T05:47:28;14.25;;;6.88;;
69985;SDS011;57328;52.054;5.294;2024-01-30T05:49:55;18.63;;;7.53;;
69985;SDS011;57328;52.054;5.294;2024-01-30T05:52:23;16.77;;;6.85;;
69985;SDS011;57328;52.054;5.294;2024-01-30T05:54:50;15.45;;;7.70;;
69985;SDS011;57328;52.054;5.294;2024-01-30T05:57:18;14.38;;;6.90;;
69985;SDS011;57328;52.054;5.294;2024-01-30T05:59:45;13.63;;;7.03;;
69985;SDS011;57328;52.054;5.294;2024-01-30T06:02:13;13.95;;;6.43;;
69985;SDS011;57328;52.054;5.294;2024-01-30T06:04:41;13.27;;;6.82;;
69985;SDS011;57328;52.054;5.294;2024-01-30T06:07:08;13.98;;;6.78;;
69985;SDS011;57328;52.054;5.294;2024-01-30T06:09:35;14.55;;;7.20;;
69985;SDS011;57328;52.054;5.294;2024-01-30T06:12:03;15.43;;;8.23;;
69985;SDS011;57328;52.054;5.294;2024-01-30T06:14:31;16.58;;;7.57;;
69985;SDS011;57328;52.054;5.294;2024-01-30T06:16:59;17.83;;;7.78;;
69985;SDS011;57328;52.054;5.294;2024-01-30T06:19:26;20.58;;;9.07;;
69985;SDS011;57328;52.054;5.294;2024-01-30T06:21:55;18.02;;;9.55;;
69985;SDS011;57328;52.054;5.294;2024-01-30T06:24:22;14.20;;;7.75;;
69985;SDS011;57328;52.054;5.294;2024-01-30T06:26:49;13.20;;;6.60;;
69985;SDS011;57328;52.054;5.294;2024-01-30T06:29:17;17.67;;;8.13;;
69985;SDS011;57328;52.054;5.294;2024-01-30T06:31:45;13.43;;;6.28;;
69985;SDS011;57328;52.054;5.294;2024-01-30T06:34:12;14.52;;;6.97;;
69985;SDS011;57328;52.054;5.294;2024-01-30T06:36:40;14.55;;;7.20;;
69985;SDS011;57328;52.054;5.294;2024-01-30T06:39:08;14.13;;;6.95;;
69985;SDS011;57328;52.054;5.294;2024-01-30T06:41:35;15.98;;;7.60;;
69985;SDS011;57328;52.054;5.294;2024-01-30T06:44:02;16.88;;;7.20;;
69985;SDS011;57328;52.054;5.294;2024-01-30T06:46:35;15.20;;;6.75;;
69985;SDS011;57328;52.054;5.294;2024-01-30T06:49:03;14.35;;;7.28;;
69985;SDS011;57328;52.054;5.294;2024-01-30T06:51:30;16.90;;;7.15;;
69985;SDS011;57328;52.054;5.294;2024-01-30T06:53:57;16.00;;;6.93;;
69985;SDS011;57328;52.054;5.294;2024-01-30T06:56:25;14.38;;;6.70;;
69985;SDS011;57328;52.054;5.294;2024-01-30T06:58:52;16.25;;;7.22;;
69985;SDS011;57328;52.054;5.294;2024-01-30T07:01:19;15.50;;;7.05;;
69985;SDS011;57328;52.054;5.294;2024-01-30T07:03:47;12.95;;;6.32;;
69985;SDS011;57328;52.054;5.294;2024-01-30T07:06:14;15.48;;;7.00;;
69985;SDS011;57328;52.054;5.294;2024-01-30T07:08:42;12.98;;;6.65;;
69985;SDS011;57328;52.054;5.294;2024-01-30T07:11:09;13.88;;;6.70;;
69985;SDS011;57328;52.054;5.294;2024-01-30T07:13:38;15.82;;;7.03;;
69985;SDS011;57328;52.054;5.294;2024-01-30T07:16:05;15.15;;;7.38;;
69985;SDS011;57328;52.054;5.294;2024-01-30T07:18:33;16.15;;;7.10;;
69985;SDS011;57328;52.054;5.294;2024-01-30T07:21:00;14.82;;;6.85;;
69985;SDS011;57328;52.054;5.294;2024-01-30T07:23:27;13.60;;;7.05;;
69985;SDS011;57328;52.054;5.294;2024-01-30T07:25:55;16.30;;;6.75;;
69985;SDS011;57328;52.054;5.294;2024-01-30T07:28:23;16.35;;;7.05;;
69985;SDS011;57328;52.054;5.294;2024-01-30T07:30:51;14.52;;;6.88;;
69985;SDS011;57328;52.054;5.294;2024-01-30T07:33:18;13.75;;;7.03;;
69985;SDS011;57328;52.054;5.294;2024-01-30T07:35:45;17.48;;;6.78;;
69985;SDS011;57328;52.054;5.294;2024-01-30T07:38:12;13.57;;;6.90;;
69985;SDS011;57328;52.054;5.294;2024-01-30T07:40:40;15.15;;;6.70;;
69985;SDS011;57328;52.054;5.294;2024-01-30T07:43:07;15.60;;;6.80;;
69985;SDS011;57328;52.054;5.294;2024-01-30T07:45:34;14.75;;;6.68;;
69985;SDS011;57328;52.054;5.294;2024-01-30T07:48:02;13.88;;;6.47;;
69985;SDS011;57328;52.054;5.294;2024-01-30T07:50:29;15.15;;;6.57;;
69985;SDS011;57328;52.054;5.294;2024-01-30T07:52:56;14.23;;;6.72;;
69985;SDS011;57328;52.054;5.294;2024-01-30T07:55:24;14.23;;;6.40;;
69985;SDS011;57328;52.054;5.294;2024-01-30T07:57:55;14.50;;;6.45;;
69985;SDS011;57328;52.054;5.294;2024-01-30T08:00:22;16.02;;;6.32;;
69985;SDS011;57328;52.054;5.294;2024-01-30T08:02:50;14.57;;;5.80;;
69985;SDS011;57328;52.054;5.294;2024-01-30T08:05:20;16.35;;;6.82;;
69985;SDS011;57328;52.054;5.294;2024-01-30T08:07:51;12.73;;;6.15;;
69985;SDS011;57328;52.054;5.294;2024-01-30T08:10:18;14.73;;;6.40;;
69985;SDS011;57328;52.054;5.294;2024-01-30T08:12:45;18.40;;;6.60;;
69985;SDS011;57328;52.054;5.294;2024-01-30T08:15:13;11.82;;;5.63;;
69985;SDS011;57328;52.054;5.294;2024-01-30T08:17:40;16.67;;;6.07;;
69985;SDS011;57328;52.054;5.294;2024-01-30T08:20:07;13.02;;;6.22;;
69985;SDS011;57328;52.054;5.294;2024-01-30T08:22:40;13.25;;;5.97;;
69985;SDS011;57328;52.054;5.294;2024-01-30T08:25:07;16.95;;;5.88;;
69985;SDS011;57328;52.054;5.294;2024-01-30T08:27:36;13.30;;;5.78;;
69985;SDS011;57328;52.054;5.294;2024-01-30T08:30:07;14.57;;;6.22;;
69985;SDS011;57328;52.054;5.294;2024-01-30T08:32:35;16.42;;;6.18;;
69985;SDS011;57328;52.054;5.294;2024-01-30T08:35:02;13.57;;;5.78;;
69985;SDS011;57328;52.054;5.294;2024-01-30T08:37:30;14.80;;;6.28;;
69985;SDS011;57328;52.054;5.294;2024-01-30T08:39:57;16.85;;;6.28;;
69985;SDS011;57328;52.054;5.294;2024-01-30T08:42:26;14.60;;;5.95;;
69985;SDS011;57328;52.054;5.294;2024-01-30T08:44:53;15.30;;;6.18;;
69985;SDS011;57328;52.054;5.294;2024-01-30T08:47:20;16.45;;;6.30;;
69985;SDS011;57328;52.054;5.294;2024-01-30T08:49:47;19.00;;;6.30;;
69985;SDS011;57328;52.054;5.294;2024-01-30T08:52:15;12.43;;;5.88;;
69985;SDS011;57328;52.054;5.294;2024-01-30T08:54:42;16.90;;;6.68;;
69985;SDS011;57328;52.054;5.294;2024-01-30T08:57:09;15.20;;;6.55;;
69985;SDS011;57328;52.054;5.294;2024-01-30T08:59:37;13.80;;;5.95;;
69985;SDS011;57328;52.054;5.294;2024-01-30T09:02:04;16.30;;;5.80;;
69985;SDS011;57328;52.054;5.294;2024-01-30T09:04:38;14.80;;;5.72;;
69985;SDS011;57328;52.054;5.294;2024-01-30T09:07:06;14.73;;;6.40;;
69985;SDS011;57328;52.054;5.294;2024-01-30T09:09:39;14.63;;;5.70;;
69985;SDS011;57328;52.054;5.294;2024-01-30T09:12:07;13.25;;;6.35;;
69985;SDS011;57328;52.054;5.294;2024-01-30T09:14:38;14.20;;;6.13;;
69985;SDS011;57328;52.054;5.294;2024-01-30T09:17:06;15.23;;;6.13;;
69985;SDS011;57328;52.054;5.294;2024-01-30T09:19:34;12.98;;;6.00;;
69985;SDS011;57328;52.054;5.294;2024-01-30T09:22:02;16.48;;;6.82;;
69985;SDS011;57328;52.054;5.294;2024-01-30T09:24:30;15.68;;;6.10;;
69985;SDS011;57328;52.054;5.294;2024-01-30T09:26:57;11.60;;;5.97;;
69985;SDS011;57328;52.054;5.294;2024-01-30T09:29:24;16.63;;;6.18;;
69985;SDS011;57328;52.054;5.294;2024-01-30T09:31:52;14.70;;;6.55;;
69985;SDS011;57328;52.054;5.294;2024-01-30T09:34:19;16.40;;;5.82;;
69985;SDS011;57328;52.054;5.294;2024-01-30T09:36:46;15.68;;;6.07;;
69985;SDS011;57328;52.054;5.294;2024-01-30T09:39:14;12.35;;;5.25;;
69985;SDS011;57328;52.054;5.294;2024-01-30T09:41:48;15.07;;;6.13;;
69985;SDS011;57328;52.054;5.294;2024-01-30T09:44:16;13.38;;;5.90;;
69985;SDS011;57328;52.054;5.294;2024-01-30T09:46:44;16.60;;;6.13;;
69985;SDS011;57328;52.054;5.294;2024-01-30T09:49:14;14.65;;;6.47;;
69985;SDS011;57328;52.054;5.294;2024-01-30T09:51:47;12.88;;;5.97;;
69985;SDS011;57328;52.054;5.294;2024-01-30T09:54:15;13.45;;;6.00;;
69985;SDS011;57328;52.054;5.294;2024-01-30T09:56:42;13.15;;;6.40;;
69985;SDS011;57328;52.054;5.294;2024-01-30T09:59:10;16.33;;;6.57;;
69985;SDS011;57328;52.054;5.294;2024-01-30T10:01:37;17.42;;;6.47;;
69985;SDS011;57328;52.054;5.294;2024-01-30T10:04:04;13.25;;;6.68;;
69985;SDS011;57328;52.054;5.294;2024-01-30T10:06:33;13.60;;;6.20;;
69985;SDS011;57328;52.054;5.294;2024-01-30T10:09:01;14.85;;;6.00;;
69985;SDS011;57328;52.054;5.294;2024-01-30T10:11:28;18.02;;;6.53;;
69985;SDS011;57328;52.054;5.294;2024-01-30T10:13:55;14.02;;;6.15;;
69985;SDS011;57328;52.054;5.294;2024-01-30T10:16:22;13.38;;;6.53;;
69985;SDS011;57328;52.054;5.294;2024-01-30T10:18:50;16.02;;;6.43;;
69985;SDS011;57328;52.054;5.294;2024-01-30T10:21:17;13.68;;;5.53;;
69985;SDS011;57328;52.054;5.294;2024-01-30T10:23:45;17.85;;;6.15;;
69985;SDS011;57328;52.054;5.294;2024-01-30T10:26:12;16.50;;;6.25;;
69985;SDS011;57328;52.054;5.294;2024-01-30T10:28:40;14.60;;;6.78;;
69985;SDS011;57328;52.054;5.294;2024-01-30T10:31:07;16.30;;;6.90;;
69985;SDS011;57328;52.054;5.294;2024-01-30T10:33:35;12.55;;;5.90;;
69985;SDS011;57328;52.054;5.294;2024-01-30T10:36:03;14.50;;;5.90;;
69985;SDS011;57328;52.054;5.294;2024-01-30T10:38:31;16.90;;;6.45;;
69985;SDS011;57328;52.054;5.294;2024-01-30T10:40:59;14.13;;;6.10;;
69985;SDS011;57328;52.054;5.294;2024-01-30T10:43:36;14.15;;;6.05;;
69985;SDS011;57328;52.054;5.294;2024-01-30T10:48:33;14.05;;;5.85;;
69985;SDS011;57328;52.054;5.294;2024-01-30T10:51:06;13.50;;;5.53;;
69985;SDS011;57328;52.054;5.294;2024-01-30T10:53:33;13.68;;;6.45;;
69985;SDS011;57328;52.054;5.294;2024-01-30T10:56:01;14.35;;;5.40;;
69985;SDS011;57328;52.054;5.294;2024-01-30T10:58:30;17.98;;;5.50;;
69985;SDS011;57328;52.054;5.294;2024-01-30T11:00:57;14.15;;;5.90;;
69985;SDS011;57328;52.054;5.294;2024-01-30T11:03:25;16.77;;;6.70;;
69985;SDS011;57328;52.054;5.294;2024-01-30T11:05:53;17.17;;;6.53;;
69985;SDS011;57328;52.054;5.294;2024-01-30T11:08:23;13.10;;;5.93;;
69985;SDS011;57328;52.054;5.294;2024-01-30T11:10:55;18.50;;;6.90;;
69985;SDS011;57328;52.054;5.294;2024-01-30T11:13:26;16.25;;;7.05;;
69985;SDS011;57328;52.054;5.294;2024-01-30T11:15:54;15.80;;;6.80;;
69985;SDS011;57328;52.054;5.294;2024-01-30T11:18:39;14.38;;;6.30;;
69985;SDS011;57328;52.054;5.294;2024-01-30T11:21:06;17.55;;;6.80;;
69985;SDS011;57328;52.054;5.294;2024-01-30T11:23:34;15.98;;;5.68;;
69985;SDS011;57328;52.054;5.294;2024-01-30T11:26:02;11.35;;;4.95;;
69985;SDS011;57328;52.054;5.294;2024-01-30T11:28:33;12.27;;;5.18;;
69985;SDS011;57328;52.054;5.294;2024-01-30T11:31:04;12.65;;;4.43;;
69985;SDS011;57328;52.054;5.294;2024-01-30T11:33:33;10.32;;;3.97;;
69985;SDS011;57328;52.054;5.294;2024-01-30T11:36:01;9.50;;;3.70;;
69985;SDS011;57328;52.054;5.294;2024-01-30T11:38:28;10.35;;;3.75;;
69985;SDS011;57328;52.054;5.294;2024-01-30T11:40:56;8.10;;;2.58;;
69985;SDS011;57328;52.054;5.294;2024-01-30T11:43:23;8.35;;;2.45;;
69985;SDS011;57328;52.054;5.294;2024-01-30T11:45:51;8.80;;;2.63;;
69985;SDS011;57328;52.054;5.294;2024-01-30T11:48:19;7.07;;;1.95;;
69985;SDS011;57328;52.054;5.294;2024-01-30T11:50:46;7.95;;;2.15;;
69985;SDS011;57328;52.054;5.294;2024-01-30T11:53:14;7.25;;;1.50;;
69985;SDS011;57328;52.054;5.294;2024-01-30T11:55:41;4.30;;;1.60;;
69985;SDS011;57328;52.054;5.294;2024-01-30T11:58:09;5.00;;;1.40;;
69985;SDS011;57328;52.054;5.294;2024-01-30T12:00:36;5.22;;;1.35;;
69985;SDS011;57328;52.054;5.294;2024-01-30T12:03:04;4.22;;;1.30;;
69985;SDS011;57328;52.054;5.294;2024-01-30T12:05:33;4.85;;;0.88;;
69985;SDS011;57328;52.054;5.294;2024-01-30T12:08:00;4.75;;;1.42;;
69985;SDS011;57328;52.054;5.294;2024-01-30T12:10:28;5.13;;;1.40;;
69985;SDS011;57328;52.054;5.294;2024-01-30T12:12:57;6.15;;;2.00;;
69985;SDS011;57328;52.054;5.294;2024-01-30T12:15:24;6.88;;;2.10;;
69985;SDS011;57328;52.054;5.294;2024-01-30T12:17:52;4.70;;;2.05;;
69985;SDS011;57328;52.054;5.294;2024-01-30T12:20:19;9.25;;;2.67;;
69985;SDS011;57328;52.054;5.294;2024-01-30T12:22:49;6.80;;;2.60;;
69985;SDS011;57328;52.054;5.294;2024-01-30T12:25:18;6.03;;;2.60;;
69985;SDS011;57328;52.054;5.294;2024-01-30T12:27:46;8.48;;;2.88;;
69985;SDS011;57328;52.054;5.294;2024-01-30T12:30:17;6.15;;;1.90;;
69985;SDS011;57328;52.054;5.294;2024-01-30T12:32:45;5.00;;;2.10;;
69985;SDS011;57328;52.054;5.294;2024-01-30T12:35:14;8.38;;;2.65;;
69985;SDS011;57328;52.054;5.294;2024-01-30T12:37:43;8.15;;;2.33;;
69985;SDS011;57328;52.054;5.294;2024-01-30T12:40:11;9.32;;;2.58;;
69985;SDS011;57328;52.054;5.294;2024-01-30T12:42:41;4.78;;;1.42;;
69985;SDS011;57328;52.054;5.294;2024-01-30T12:45:09;8.23;;;1.92;;
69985;SDS011;57328;52.054;5.294;2024-01-30T12:47:36;10.60;;;2.45;;
69985;SDS011;57328;52.054;5.294;2024-01-30T12:50:04;7.13;;;1.73;;
69985;SDS011;57328;52.054;5.294;2024-01-30T12:52:31;7.07;;;2.10;;
69985;SDS011;57328;52.054;5.294;2024-01-30T12:54:59;8.57;;;2.22;;
69985;SDS011;57328;52.054;5.294;2024-01-30T12:57:26;7.15;;;2.25;;
69985;SDS011;57328;52.054;5.294;2024-01-30T12:59:54;10.68;;;3.50;;
69985;SDS011;57328;52.054;5.294;2024-01-30T13:02:21;7.88;;;2.38;;
69985;SDS011;57328;52.054;5.294;2024-01-30T13:04:48;6.72;;;2.35;;
69985;SDS011;57328;52.054;5.294;2024-01-30T13:07:16;7.30;;;2.00;;
69985;SDS011;57328;52.054;5.294;2024-01-30T13:09:44;4.55;;;1.70;;
69985;SDS011;57328;52.054;5.294;2024-01-30T13:12:11;12.43;;;5.50;;
69985;SDS011;57328;52.054;5.294;2024-01-30T13:14:38;4.30;;;1.80;;
69985;SDS011;57328;52.054;5.294;2024-01-30T13:17:06;5.45;;;1.67;;
69985;SDS011;57328;52.054;5.294;2024-01-30T13:19:33;5.53;;;1.35;;
69985;SDS011;57328;52.054;5.294;2024-01-30T13:22:00;6.80;;;1.40;;
69985;SDS011;57328;52.054;5.294;2024-01-30T13:24:28;4.30;;;1.35;;
69985;SDS011;57328;52.054;5.294;2024-01-30T13:26:55;5.93;;;1.65;;
69985;SDS011;57328;52.054;5.294;2024-01-30T13:29:22;6.47;;;1.60;;
69985;SDS011;57328;52.054;5.294;2024-01-30T13:31:50;3.17;;;0.80;;
69985;SDS011;57328;52.054;5.294;2024-01-30T13:34:17;5.00;;;1.17;;
69985;SDS011;57328;52.054;5.294;2024-01-30T13:36:44;5.38;;;1.00;;
69985;SDS011;57328;52.054;5.294;2024-01-30T13:39:11;3.92;;;0.90;;
69985;SDS011;57328;52.054;5.294;2024-01-30T13:41:39;5.70;;;0.90;;
69985;SDS011;57328;52.054;5.294;2024-01-30T13:44:06;1.98;;;0.50;;
69985;SDS011;57328;52.054;5.294;2024-01-30T13:46:34;3.47;;;0.77;;
69985;SDS011;57328;52.054;5.294;2024-01-30T13:49:02;5.13;;;0.88;;
69985;SDS011;57328;52.054;5.294;2024-01-30T13:51:30;5.40;;;0.88;;
69985;SDS011;57328;52.054;5.294;2024-01-30T13:53:57;2.75;;;0.73;;
69985;SDS011;57328;52.054;5.294;2024-01-30T13:56:24;3.63;;;0.90;;
69985;SDS011;57328;52.054;5.294;2024-01-30T13:58:53;5.82;;;1.23;;
69985;SDS011;57328;52.054;5.294;2024-01-30T14:01:22;6.30;;;1.08;;
69985;SDS011;57328;52.054;5.294;2024-01-30T14:03:50;4.93;;;1.25;;
69985;SDS011;57328;52.054;5.294;2024-01-30T14:06:18;7.50;;;1.58;;
69985;SDS011;57328;52.054;5.294;2024-01-30T14:08:45;11.98;;;1.80;;
69985;SDS011;57328;52.054;5.294;2024-01-30T14:11:22;6.63;;;1.90;;
69985;SDS011;57328;52.054;5.294;2024-01-30T14:13:49;4.43;;;1.00;;
69985;SDS011;57328;52.054;5.294;2024-01-30T14:16:16;3.28;;;0.90;;
69985;SDS011;57328;52.054;5.294;2024-01-30T14:18:44;6.05;;;1.15;;
69985;SDS011;57328;52.054;5.294;2024-01-30T14:21:11;5.72;;;1.30;;
69985;SDS011;57328;52.054;5.294;2024-01-30T14:23:38;5.30;;;1.30;;
69985;SDS011;57328;52.054;5.294;2024-01-30T14:26:05;3.33;;;0.95;;
69985;SDS011;57328;52.054;5.294;2024-01-30T14:28:33;7.35;;;1.60;;
69985;SDS011;57328;52.054;5.294;2024-01-30T14:31:00;5.40;;;1.50;;
69985;SDS011;57328;52.054;5.294;2024-01-30T14:33:27;8.75;;;1.70;;
69985;SDS011;57328;52.054;5.294;2024-01-30T14:35:55;4.95;;;1.10;;
69985;SDS011;57328;52.054;5.294;2024-01-30T14:38:22;7.25;;;1.48;;
69985;SDS011;57328;52.054;5.294;2024-01-30T14:43:18;4.68;;;1.27;;
69985;SDS011;57328;52.054;5.294;2024-01-30T14:45:45;5.90;;;1.58;;